sensor_id;sensor_type;location;lat;lon;timestamp;pressure;altitude;pressure_sealevel;temperature;humidity
35892;BME280;21993;42.672;23.296;2023-05-11T00:00:14;94894.00;;;11.73;65.65
35892;BME280;21993;42.672;23.296;2023-05-11T00:02:42;94892.75;;;11.67;65.58
35892;BME280;21993;42.672;23.296;2023-05-11T00:05:08;94904.69;;;11.62;65.35
35892;BME280;21993;42.672;23.296;2023-05-11T00:07:34;94910.31;;;11.57;65.54
35892;BME280;21993;42.672;23.296;2023-05-11T00:09:59;94892.06;;;11.46;65.69
35892;BME280;21993;42.672;23.296;2023-05-11T00:12:25;94896.50;;;11.55;65.57
35892;BME280;21993;42.672;23.296;2023-05-11T00:14:50;94903.09;;;11.40;66.12
35892;BME280;21993;42.672;23.296;2023-05-11T00:17:16;94896.19;;;11.48;66.06
35892;BME280;21993;42.672;23.296;2023-05-11T00:19:43;94901.97;;;11.33;66.24
35892;BME280;21993;42.672;23.296;2023-05-11T00:22:08;94908.34;;;11.30;66.69
35892;BME280;21993;42.672;23.296;2023-05-11T00:24:33;94910.75;;;11.52;65.48
35892;BME280;21993;42.672;23.296;2023-05-11T00:26:59;94900.44;;;11.20;66.38
35892;BME280;21993;42.672;23.296;2023-05-11T00:29:24;94907.53;;;11.39;66.20
35892;BME280;21993;42.672;23.296;2023-05-11T00:31:50;94898.41;;;11.43;65.64
35892;BME280;21993;42.672;23.296;2023-05-11T00:34:16;94900.69;;;11.17;66.85
35892;BME280;21993;42.672;23.296;2023-05-11T00:36:42;94908.03;;;11.14;67.28
35892;BME280;21993;42.672;23.296;2023-05-11T00:39:09;94904.88;;;11.20;66.40
35892;BME280;21993;42.672;23.296;2023-05-11T00:41:36;94905.72;;;11.30;66.38
35892;BME280;21993;42.672;23.296;2023-05-11T00:44:01;94914.56;;;11.29;66.74
35892;BME280;21993;42.672;23.296;2023-05-11T00:46:27;94903.47;;;11.25;66.85
35892;BME280;21993;42.672;23.296;2023-05-11T00:48:53;94923.69;;;11.35;66.80
35892;BME280;21993;42.672;23.296;2023-05-11T00:51:20;94915.97;;;11.33;66.33
35892;BME280;21993;42.672;23.296;2023-05-11T00:53:46;94921.84;;;11.16;67.03
35892;BME280;21993;42.672;23.296;2023-05-11T00:56:11;94914.41;;;11.11;67.46
35892;BME280;21993;42.672;23.296;2023-05-11T00:58:37;94911.38;;;11.25;66.54
35892;BME280;21993;42.672;23.296;2023-05-11T01:01:04;94912.03;;;11.18;67.11
35892;BME280;21993;42.672;23.296;2023-05-11T01:03:31;94918.72;;;11.32;66.78
35892;BME280;21993;42.672;23.296;2023-05-11T01:06:07;94916.22;;;11.30;66.91
35892;BME280;21993;42.672;23.296;2023-05-11T01:08:41;94911.75;;;11.02;67.86
35892;BME280;21993;42.672;23.296;2023-05-11T01:13:38;94913.75;;;10.88;68.27
35892;BME280;21993;42.672;23.296;2023-05-11T01:16:22;94920.91;;;10.77;68.66
35892;BME280;21993;42.672;23.296;2023-05-11T01:18:55;94910.00;;;10.81;68.53
35892;BME280;21993;42.672;23.296;2023-05-11T01:21:22;94926.53;;;10.72;68.81
35892;BME280;21993;42.672;23.296;2023-05-11T01:32:41;94916.81;;;10.63;68.75
35892;BME280;21993;42.672;23.296;2023-05-11T01:35:19;94916.38;;;10.58;69.05
35892;BME280;21993;42.672;23.296;2023-05-11T01:37:48;94913.03;;;10.77;68.35
35892;BME280;21993;42.672;23.296;2023-05-11T01:40:17;94910.22;;;10.68;68.42
35892;BME280;21993;42.672;23.296;2023-05-11T01:42:51;94912.56;;;10.71;68.15
35892;BME280;21993;42.672;23.296;2023-05-11T01:45:19;94911.94;;;10.58;68.30
35892;BME280;21993;42.672;23.296;2023-05-11T01:47:48;94914.41;;;10.81;68.24
35892;BME280;21993;42.672;23.296;2023-05-11T01:50:16;94910.69;;;10.53;68.15
35892;BME280;21993;42.672;23.296;2023-05-11T01:52:42;94917.59;;;10.54;68.56
35892;BME280;21993;42.672;23.296;2023-05-11T01:55:10;94915.75;;;10.75;67.54
35892;BME280;21993;42.672;23.296;2023-05-11T01:57:37;94914.47;;;10.60;67.70
35892;BME280;21993;42.672;23.296;2023-05-11T02:00:03;94914.09;;;10.74;67.50
35892;BME280;21993;42.672;23.296;2023-05-11T02:02:30;94913.47;;;10.91;66.91
35892;BME280;21993;42.672;23.296;2023-05-11T02:04:57;94918.19;;;10.88;66.75
35892;BME280;21993;42.672;23.296;2023-05-11T02:07:24;94901.63;;;10.97;67.18
35892;BME280;21993;42.672;23.296;2023-05-11T02:09:52;94897.84;;;10.90;65.95
35892;BME280;21993;42.672;23.296;2023-05-11T02:12:19;94897.75;;;11.01;65.96
35892;BME280;21993;42.672;23.296;2023-05-11T02:14:47;94897.84;;;10.90;65.84
35892;BME280;21993;42.672;23.296;2023-05-11T02:17:15;94897.16;;;10.88;66.17
35892;BME280;21993;42.672;23.296;2023-05-11T02:19:43;94896.84;;;10.81;66.15
35892;BME280;21993;42.672;23.296;2023-05-11T02:22:09;94894.22;;;10.81;66.15
35892;BME280;21993;42.672;23.296;2023-05-11T02:24:36;94910.25;;;10.78;65.78
35892;BME280;21993;42.672;23.296;2023-05-11T02:27:03;94891.59;;;10.81;65.94
35892;BME280;21993;42.672;23.296;2023-05-11T02:29:29;94891.84;;;10.68;66.15
35892;BME280;21993;42.672;23.296;2023-05-11T02:32:08;94895.66;;;10.55;66.33
35892;BME280;21993;42.672;23.296;2023-05-11T02:34:41;94890.94;;;10.58;66.07
35892;BME280;21993;42.672;23.296;2023-05-11T02:37:14;94893.75;;;10.66;65.96
35892;BME280;21993;42.672;23.296;2023-05-11T02:39:43;94887.97;;;10.73;65.97
35892;BME280;21993;42.672;23.296;2023-05-11T02:42:13;94898.16;;;10.66;65.42
35892;BME280;21993;42.672;23.296;2023-05-11T02:44:54;94897.78;;;10.70;65.66
35892;BME280;21993;42.672;23.296;2023-05-11T02:47:26;94904.84;;;10.49;65.99
35892;BME280;21993;42.672;23.296;2023-05-11T02:49:54;94904.13;;;10.37;66.29
35892;BME280;21993;42.672;23.296;2023-05-11T02:52:23;94894.59;;;10.36;66.01
35892;BME280;21993;42.672;23.296;2023-05-11T02:54:50;94900.75;;;10.56;65.92
35892;BME280;21993;42.672;23.296;2023-05-11T02:57:17;94888.81;;;10.42;65.97
35892;BME280;21993;42.672;23.296;2023-05-11T02:59:44;94901.69;;;10.46;66.27
35892;BME280;21993;42.672;23.296;2023-05-11T03:02:10;94898.53;;;10.52;65.84
35892;BME280;21993;42.672;23.296;2023-05-11T03:04:35;94898.28;;;10.55;65.99
35892;BME280;21993;42.672;23.296;2023-05-11T03:07:01;94901.28;;;10.50;66.14
35892;BME280;21993;42.672;23.296;2023-05-11T03:09:26;94887.50;;;10.58;65.77
35892;BME280;21993;42.672;23.296;2023-05-11T03:11:52;94900.94;;;10.64;65.67
35892;BME280;21993;42.672;23.296;2023-05-11T03:14:18;94886.81;;;10.56;65.89
35892;BME280;21993;42.672;23.296;2023-05-11T03:16:43;94901.84;;;10.54;65.92
35892;BME280;21993;42.672;23.296;2023-05-11T03:19:10;94907.44;;;10.60;65.83
35892;BME280;21993;42.672;23.296;2023-05-11T03:21:38;94908.63;;;10.56;65.76
35892;BME280;21993;42.672;23.296;2023-05-11T03:24:05;94909.16;;;10.50;65.72
35892;BME280;21993;42.672;23.296;2023-05-11T03:26:32;94905.69;;;10.50;65.89
35892;BME280;21993;42.672;23.296;2023-05-11T03:28:58;94893.75;;;10.66;65.83
35892;BME280;21993;42.672;23.296;2023-05-11T03:31:25;94907.81;;;10.56;65.85
35892;BME280;21993;42.672;23.296;2023-05-11T03:33:50;94910.69;;;10.53;66.16
35892;BME280;21993;42.672;23.296;2023-05-11T03:36:16;94910.34;;;10.36;66.58
35892;BME280;21993;42.672;23.296;2023-05-11T03:38:44;94900.25;;;10.41;66.47
35892;BME280;21993;42.672;23.296;2023-05-11T03:41:13;94911.06;;;10.48;66.08
35892;BME280;21993;42.672;23.296;2023-05-11T03:43:39;94914.09;;;10.43;66.29
35892;BME280;21993;42.672;23.296;2023-05-11T03:46:06;94920.19;;;10.44;66.09
35892;BME280;21993;42.672;23.296;2023-05-11T03:48:32;94925.06;;;10.28;66.83
35892;BME280;21993;42.672;23.296;2023-05-11T03:50:58;94920.38;;;10.31;67.05
35892;BME280;21993;42.672;23.296;2023-05-11T03:53:24;94931.31;;;10.36;66.88
35892;BME280;21993;42.672;23.296;2023-05-11T03:55:50;94922.66;;;10.46;66.35
35892;BME280;21993;42.672;23.296;2023-05-11T03:58:21;94921.00;;;10.45;66.66
35892;BME280;21993;42.672;23.296;2023-05-11T04:00:47;94918.44;;;10.33;67.02
35892;BME280;21993;42.672;23.296;2023-05-11T04:03:12;94927.31;;;10.42;66.42
35892;BME280;21993;42.672;23.296;2023-05-11T04:05:38;94928.75;;;10.25;67.39
35892;BME280;21993;42.672;23.296;2023-05-11T04:08:04;94932.63;;;10.10;67.41
35892;BME280;21993;42.672;23.296;2023-05-11T04:10:30;94931.19;;;10.38;67.01
35892;BME280;21993;42.672;23.296;2023-05-11T04:12:56;94930.91;;;10.41;66.83
35892;BME280;21993;42.672;23.296;2023-05-11T04:15:21;94933.31;;;10.44;66.82
35892;BME280;21993;42.672;23.296;2023-05-11T04:17:46;94934.09;;;10.35;67.06
35892;BME280;21993;42.672;23.296;2023-05-11T04:20:12;94930.53;;;10.46;67.16
35892;BME280;21993;42.672;23.296;2023-05-11T04:22:37;94934.34;;;10.21;67.84
35892;BME280;21993;42.672;23.296;2023-05-11T04:25:03;94926.22;;;10.35;67.63
35892;BME280;21993;42.672;23.296;2023-05-11T04:27:32;94946.50;;;10.22;68.12
35892;BME280;21993;42.672;23.296;2023-05-11T04:29:58;94949.88;;;10.24;68.17
35892;BME280;21993;42.672;23.296;2023-05-11T04:32:23;94947.56;;;10.30;67.83
35892;BME280;21993;42.672;23.296;2023-05-11T04:34:49;94946.94;;;10.38;67.50
35892;BME280;21993;42.672;23.296;2023-05-11T04:37:14;94957.00;;;10.22;68.43
35892;BME280;21993;42.672;23.296;2023-05-11T04:39:39;94953.69;;;10.20;68.59
35892;BME280;21993;42.672;23.296;2023-05-11T04:42:05;94951.19;;;10.18;68.86
35892;BME280;21993;42.672;23.296;2023-05-11T04:44:30;94950.03;;;10.11;68.81
35892;BME280;21993;42.672;23.296;2023-05-11T04:46:56;94949.28;;;10.20;68.51
35892;BME280;21993;42.672;23.296;2023-05-11T04:49:22;94947.75;;;10.18;68.85
35892;BME280;21993;42.672;23.296;2023-05-11T04:51:47;94958.72;;;10.11;69.26
35892;BME280;21993;42.672;23.296;2023-05-11T04:54:12;94955.50;;;10.40;68.62
35892;BME280;21993;42.672;23.296;2023-05-11T04:56:38;94954.44;;;10.42;68.50
35892;BME280;21993;42.672;23.296;2023-05-11T04:59:08;94951.34;;;10.37;68.63
35892;BME280;21993;42.672;23.296;2023-05-11T05:01:33;94958.34;;;10.27;69.09
35892;BME280;21993;42.672;23.296;2023-05-11T05:03:59;94957.09;;;10.31;68.94
35892;BME280;21993;42.672;23.296;2023-05-11T05:06:24;94956.59;;;10.37;68.94
35892;BME280;21993;42.672;23.296;2023-05-11T05:08:49;94974.50;;;10.32;68.91
35892;BME280;21993;42.672;23.296;2023-05-11T05:11:15;94984.34;;;10.19;69.58
35892;BME280;21993;42.672;23.296;2023-05-11T05:13:40;94970.59;;;9.95;70.48
35892;BME280;21993;42.672;23.296;2023-05-11T05:16:06;94977.78;;;9.81;71.20
35892;BME280;21993;42.672;23.296;2023-05-11T05:18:31;94988.38;;;9.91;71.12
35892;BME280;21993;42.672;23.296;2023-05-11T05:20:57;94979.25;;;9.74;72.00
35892;BME280;21993;42.672;23.296;2023-05-11T05:23:22;94982.63;;;9.97;71.42
35892;BME280;21993;42.672;23.296;2023-05-11T05:25:48;94977.03;;;10.02;71.17
35892;BME280;21993;42.672;23.296;2023-05-11T05:28:13;94977.41;;;10.29;70.57
35892;BME280;21993;42.672;23.296;2023-05-11T05:30:39;94979.72;;;10.11;70.66
35892;BME280;21993;42.672;23.296;2023-05-11T05:33:04;94987.94;;;10.07;71.27
35892;BME280;21993;42.672;23.296;2023-05-11T05:35:29;94981.94;;;10.16;71.14
35892;BME280;21993;42.672;23.296;2023-05-11T05:37:56;94990.69;;;10.05;71.35
35892;BME280;21993;42.672;23.296;2023-05-11T05:40:21;94987.94;;;9.86;71.53
35892;BME280;21993;42.672;23.296;2023-05-11T05:42:46;94974.59;;;10.10;71.65
35892;BME280;21993;42.672;23.296;2023-05-11T05:45:12;94979.31;;;10.16;71.08
35892;BME280;21993;42.672;23.296;2023-05-11T05:47:37;94974.91;;;10.16;70.81
35892;BME280;21993;42.672;23.296;2023-05-11T05:50:04;94981.22;;;10.25;70.27
35892;BME280;21993;42.672;23.296;2023-05-11T05:52:30;94993.19;;;10.07;70.38
35892;BME280;21993;42.672;23.296;2023-05-11T05:54:55;94990.56;;;10.07;70.70
35892;BME280;21993;42.672;23.296;2023-05-11T05:57:21;95004.22;;;10.22;70.59
35892;BME280;21993;42.672;23.296;2023-05-11T05:59:46;94996.41;;;10.10;71.07
35892;BME280;21993;42.672;23.296;2023-05-11T06:02:12;94995.53;;;10.21;71.23
35892;BME280;21993;42.672;23.296;2023-05-11T06:04:38;95000.06;;;10.19;70.71
35892;BME280;21993;42.672;23.296;2023-05-11T06:07:03;94989.25;;;10.12;70.83
35892;BME280;21993;42.672;23.296;2023-05-11T06:09:28;94997.19;;;10.01;70.94
35892;BME280;21993;42.672;23.296;2023-05-11T06:11:54;95008.50;;;10.02;70.87
35892;BME280;21993;42.672;23.296;2023-05-11T06:14:20;95010.09;;;10.14;70.54
35892;BME280;21993;42.672;23.296;2023-05-11T06:16:47;94999.59;;;10.25;70.11
35892;BME280;21993;42.672;23.296;2023-05-11T06:19:12;95018.69;;;10.27;69.95
35892;BME280;21993;42.672;23.296;2023-05-11T06:21:38;95009.00;;;10.16;69.66
35892;BME280;21993;42.672;23.296;2023-05-11T06:24:06;95017.72;;;10.17;69.89
35892;BME280;21993;42.672;23.296;2023-05-11T06:26:31;95042.66;;;10.23;70.25
35892;BME280;21993;42.672;23.296;2023-05-11T06:28:56;95026.03;;;10.01;70.62
35892;BME280;21993;42.672;23.296;2023-05-11T06:31:22;95016.88;;;10.16;70.23
35892;BME280;21993;42.672;23.296;2023-05-11T06:33:48;95029.16;;;10.16;70.08
35892;BME280;21993;42.672;23.296;2023-05-11T06:36:14;95035.47;;;9.93;70.94
35892;BME280;21993;42.672;23.296;2023-05-11T06:38:39;95024.84;;;9.83;70.95
35892;BME280;21993;42.672;23.296;2023-05-11T06:41:05;95023.31;;;9.80;71.65
35892;BME280;21993;42.672;23.296;2023-05-11T06:43:31;95020.56;;;9.93;71.54
35892;BME280;21993;42.672;23.296;2023-05-11T06:45:57;95021.47;;;10.03;71.01
35892;BME280;21993;42.672;23.296;2023-05-11T06:48:22;95016.09;;;10.05;71.28
35892;BME280;21993;42.672;23.296;2023-05-11T06:50:50;95024.75;;;10.16;70.92
35892;BME280;21993;42.672;23.296;2023-05-11T06:53:15;95019.13;;;10.21;70.39
35892;BME280;21993;42.672;23.296;2023-05-11T06:55:42;95015.66;;;10.32;70.49
35892;BME280;21993;42.672;23.296;2023-05-11T06:58:07;95017.72;;;10.28;70.22
35892;BME280;21993;42.672;23.296;2023-05-11T07:00:33;95016.75;;;10.29;70.25
35892;BME280;21993;42.672;23.296;2023-05-11T07:02:58;95011.03;;;10.24;70.10
35892;BME280;21993;42.672;23.296;2023-05-11T07:05:23;95029.16;;;10.27;70.63
35892;BME280;21993;42.672;23.296;2023-05-11T07:07:49;95017.00;;;10.15;70.67
35892;BME280;21993;42.672;23.296;2023-05-11T07:10:14;95024.50;;;10.31;70.78
35892;BME280;21993;42.672;23.296;2023-05-11T07:12:40;95014.97;;;10.51;70.30
35892;BME280;21993;42.672;23.296;2023-05-11T07:15:06;95028.34;;;10.48;69.85
35892;BME280;21993;42.672;23.296;2023-05-11T07:17:31;95026.13;;;10.64;69.65
35892;BME280;21993;42.672;23.296;2023-05-11T07:19:57;95026.69;;;10.67;69.02
35892;BME280;21993;42.672;23.296;2023-05-11T07:22:22;95032.41;;;10.52;69.00
35892;BME280;21993;42.672;23.296;2023-05-11T07:24:48;95024.53;;;10.52;69.20
35892;BME280;21993;42.672;23.296;2023-05-11T07:27:13;95028.19;;;10.60;69.26
35892;BME280;21993;42.672;23.296;2023-05-11T07:29:39;95038.16;;;10.66;68.77
35892;BME280;21993;42.672;23.296;2023-05-11T07:32:04;95030.59;;;10.52;69.26
35892;BME280;21993;42.672;23.296;2023-05-11T07:34:30;95029.44;;;10.66;68.81
35892;BME280;21993;42.672;23.296;2023-05-11T07:36:55;95032.25;;;10.74;68.13
35892;BME280;21993;42.672;23.296;2023-05-11T07:39:21;95027.78;;;10.86;67.81
35892;BME280;21993;42.672;23.296;2023-05-11T07:41:46;95019.72;;;11.08;67.56
35892;BME280;21993;42.672;23.296;2023-05-11T07:44:11;95028.19;;;11.12;66.80
35892;BME280;21993;42.672;23.296;2023-05-11T07:46:37;95021.47;;;11.19;66.13
35892;BME280;21993;42.672;23.296;2023-05-11T07:49:02;95024.97;;;11.08;66.14
35892;BME280;21993;42.672;23.296;2023-05-11T07:51:28;95032.34;;;11.14;66.19
35892;BME280;21993;42.672;23.296;2023-05-11T07:53:53;95034.47;;;11.20;65.80
35892;BME280;21993;42.672;23.296;2023-05-11T07:56:19;95026.41;;;11.12;66.00
35892;BME280;21993;42.672;23.296;2023-05-11T07:58:44;95030.16;;;11.19;65.81
35892;BME280;21993;42.672;23.296;2023-05-11T08:01:10;95038.56;;;11.13;65.33
35892;BME280;21993;42.672;23.296;2023-05-11T08:03:35;95032.63;;;11.11;65.78
35892;BME280;21993;42.672;23.296;2023-05-11T08:06:01;95046.34;;;11.24;65.09
35892;BME280;21993;42.672;23.296;2023-05-11T08:08:27;95029.75;;;11.24;64.55
35892;BME280;21993;42.672;23.296;2023-05-11T08:10:54;95040.19;;;11.35;64.33
35892;BME280;21993;42.672;23.296;2023-05-11T08:13:20;95046.41;;;11.34;63.88
35892;BME280;21993;42.672;23.296;2023-05-11T08:15:45;95037.25;;;11.28;63.70
35892;BME280;21993;42.672;23.296;2023-05-11T08:18:11;95043.03;;;11.22;64.07
35892;BME280;21993;42.672;23.296;2023-05-11T08:20:36;95032.31;;;11.35;63.64
35892;BME280;21993;42.672;23.296;2023-05-11T08:23:03;95031.38;;;11.46;63.53
35892;BME280;21993;42.672;23.296;2023-05-11T08:25:28;95028.09;;;11.53;63.18
35892;BME280;21993;42.672;23.296;2023-05-11T08:27:54;95025.25;;;11.36;62.98
35892;BME280;21993;42.672;23.296;2023-05-11T08:30:19;95034.00;;;11.46;62.65
35892;BME280;21993;42.672;23.296;2023-05-11T08:32:45;95036.47;;;11.38;63.24
35892;BME280;21993;42.672;23.296;2023-05-11T08:35:11;95041.13;;;11.34;63.32
35892;BME280;21993;42.672;23.296;2023-05-11T08:37:37;95035.19;;;11.32;63.24
35892;BME280;21993;42.672;23.296;2023-05-11T08:40:03;95038.16;;;11.48;63.28
35892;BME280;21993;42.672;23.296;2023-05-11T08:42:32;95035.16;;;11.53;62.79
35892;BME280;21993;42.672;23.296;2023-05-11T08:44:58;95029.75;;;11.54;62.06
35892;BME280;21993;42.672;23.296;2023-05-11T08:47:25;95037.81;;;11.72;62.07
35892;BME280;21993;42.672;23.296;2023-05-11T08:49:51;95037.69;;;11.74;61.88
35892;BME280;21993;42.672;23.296;2023-05-11T08:52:17;95027.31;;;11.72;62.18
35892;BME280;21993;42.672;23.296;2023-05-11T08:54:43;95031.50;;;11.84;62.19
35892;BME280;21993;42.672;23.296;2023-05-11T08:57:09;95023.50;;;11.96;61.08
35892;BME280;21993;42.672;23.296;2023-05-11T08:59:36;95021.19;;;12.02;60.72
35892;BME280;21993;42.672;23.296;2023-05-11T09:02:03;95022.69;;;11.95;62.10
35892;BME280;21993;42.672;23.296;2023-05-11T09:04:29;95024.81;;;11.71;61.81
35892;BME280;21993;42.672;23.296;2023-05-11T09:06:55;95015.63;;;11.86;62.18
35892;BME280;21993;42.672;23.296;2023-05-11T09:09:21;95021.03;;;11.94;61.51
35892;BME280;21993;42.672;23.296;2023-05-11T09:11:48;95015.63;;;11.96;61.99
35892;BME280;21993;42.672;23.296;2023-05-11T09:14:13;95023.38;;;11.97;62.59
35892;BME280;21993;42.672;23.296;2023-05-11T09:16:39;95021.88;;;12.14;62.52
35892;BME280;21993;42.672;23.296;2023-05-11T09:19:05;95014.50;;;12.27;61.07
35892;BME280;21993;42.672;23.296;2023-05-11T09:21:31;95013.69;;;12.27;61.63
35892;BME280;21993;42.672;23.296;2023-05-11T09:23:57;95027.69;;;12.27;60.95
35892;BME280;21993;42.672;23.296;2023-05-11T09:26:26;95035.03;;;12.04;62.44
35892;BME280;21993;42.672;23.296;2023-05-11T09:28:57;95037.38;;;12.07;62.08
35892;BME280;21993;42.672;23.296;2023-05-11T09:34:27;95025.44;;;11.94;62.40
35892;BME280;21993;42.672;23.296;2023-05-11T09:36:54;95030.28;;;11.89;63.35
35892;BME280;21993;42.672;23.296;2023-05-11T09:39:30;95018.78;;;11.99;63.25
35892;BME280;21993;42.672;23.296;2023-05-11T09:42:19;95022.84;;;12.23;63.10
35892;BME280;21993;42.672;23.296;2023-05-11T09:44:46;95030.59;;;12.24;62.67
35892;BME280;21993;42.672;23.296;2023-05-11T09:47:16;95019.78;;;11.98;63.20
35892;BME280;21993;42.672;23.296;2023-05-11T09:49:43;95024.75;;;12.01;62.68
35892;BME280;21993;42.672;23.296;2023-05-11T09:52:18;95011.75;;;12.09;62.52
35892;BME280;21993;42.672;23.296;2023-05-11T09:54:46;95018.09;;;11.97;62.86
35892;BME280;21993;42.672;23.296;2023-05-11T09:57:27;94991.38;;;12.02;63.51
35892;BME280;21993;42.672;23.296;2023-05-11T09:59:53;95000.88;;;11.74;63.89
35892;BME280;21993;42.672;23.296;2023-05-11T10:04:46;95025.88;;;11.59;64.50
35892;BME280;21993;42.672;23.296;2023-05-11T10:07:33;95012.84;;;11.47;65.05
35892;BME280;21993;42.672;23.296;2023-05-11T10:10:04;95000.72;;;11.66;64.79
35892;BME280;21993;42.672;23.296;2023-05-11T10:12:31;95005.81;;;11.67;64.90
35892;BME280;21993;42.672;23.296;2023-05-11T10:15:04;94997.94;;;11.77;64.91
35892;BME280;21993;42.672;23.296;2023-05-11T10:17:30;94991.50;;;12.00;64.38
35892;BME280;21993;42.672;23.296;2023-05-11T10:19:56;94990.44;;;12.13;64.02
35892;BME280;21993;42.672;23.296;2023-05-11T10:22:23;94999.31;;;12.11;64.58
35892;BME280;21993;42.672;23.296;2023-05-11T10:24:49;94992.22;;;12.12;64.36
35892;BME280;21993;42.672;23.296;2023-05-11T10:27:16;94989.75;;;12.20;63.17
35892;BME280;21993;42.672;23.296;2023-05-11T10:29:43;94991.94;;;12.25;63.72
35892;BME280;21993;42.672;23.296;2023-05-11T10:32:09;94972.97;;;12.31;63.08
35892;BME280;21993;42.672;23.296;2023-05-11T10:34:36;94981.13;;;12.08;64.24
35892;BME280;21993;42.672;23.296;2023-05-11T10:37:04;94972.69;;;12.24;64.42
35892;BME280;21993;42.672;23.296;2023-05-11T10:39:31;94969.38;;;12.22;64.16
35892;BME280;21993;42.672;23.296;2023-05-11T10:45:15;94972.53;;;12.55;63.11
35892;BME280;21993;42.672;23.296;2023-05-11T10:50:38;94968.19;;;12.73;62.40
35892;BME280;21993;42.672;23.296;2023-05-11T10:58:49;94974.69;;;12.88;62.51
35892;BME280;21993;42.672;23.296;2023-05-11T11:01:39;94968.25;;;13.01;62.13
35892;BME280;21993;42.672;23.296;2023-05-11T11:04:07;94965.19;;;13.05;61.55
35892;BME280;21993;42.672;23.296;2023-05-11T11:06:36;94975.00;;;13.13;61.26
35892;BME280;21993;42.672;23.296;2023-05-11T11:09:09;94968.34;;;13.09;61.27
35892;BME280;21993;42.672;23.296;2023-05-11T11:11:39;94966.66;;;13.17;61.47
35892;BME280;21993;42.672;23.296;2023-05-11T11:14:07;94978.63;;;13.02;60.62
35892;BME280;21993;42.672;23.296;2023-05-11T11:16:34;94959.91;;;13.05;61.08
35892;BME280;21993;42.672;23.296;2023-05-11T11:21:57;94968.69;;;12.96;61.79
35892;BME280;21993;42.672;23.296;2023-05-11T11:27:02;94974.81;;;12.77;61.67
35892;BME280;21993;42.672;23.296;2023-05-11T11:29:29;94961.66;;;12.77;62.37
35892;BME280;21993;42.672;23.296;2023-05-11T11:31:54;94962.59;;;12.95;61.66
35892;BME280;21993;42.672;23.296;2023-05-11T11:39:27;94946.66;;;12.87;61.42
35892;BME280;21993;42.672;23.296;2023-05-11T11:42:05;94952.16;;;12.94;62.02
35892;BME280;21993;42.672;23.296;2023-05-11T11:44:32;94961.16;;;13.01;61.32
35892;BME280;21993;42.672;23.296;2023-05-11T11:47:18;94955.28;;;13.17;60.57
35892;BME280;21993;42.672;23.296;2023-05-11T11:49:48;94963.09;;;13.09;60.70
35892;BME280;21993;42.672;23.296;2023-05-11T11:52:33;94964.44;;;12.76;61.56
35892;BME280;21993;42.672;23.296;2023-05-11T11:55:00;94956.75;;;12.92;61.08
35892;BME280;21993;42.672;23.296;2023-05-11T11:59:54;94955.44;;;12.68;62.15
35892;BME280;21993;42.672;23.296;2023-05-11T12:02:21;94950.16;;;12.78;61.78
35892;BME280;21993;42.672;23.296;2023-05-11T12:04:58;94940.19;;;12.72;62.05
35892;BME280;21993;42.672;23.296;2023-05-11T12:07:25;94949.91;;;12.72;62.39
35892;BME280;21993;42.672;23.296;2023-05-11T12:09:51;94959.31;;;12.74;62.06
35892;BME280;21993;42.672;23.296;2023-05-11T12:12:19;94962.34;;;12.89;62.01
35892;BME280;21993;42.672;23.296;2023-05-11T12:14:45;94949.94;;;12.62;62.71
35892;BME280;21993;42.672;23.296;2023-05-11T12:17:14;94944.63;;;12.72;62.27
35892;BME280;21993;42.672;23.296;2023-05-11T12:19:44;94942.78;;;12.82;62.33
35892;BME280;21993;42.672;23.296;2023-05-11T12:22:11;94938.06;;;12.85;62.14
35892;BME280;21993;42.672;23.296;2023-05-11T12:24:39;94933.25;;;12.81;62.19
35892;BME280;21993;42.672;23.296;2023-05-11T12:27:05;94933.78;;;12.84;61.90
35892;BME280;21993;42.672;23.296;2023-05-11T12:29:31;94947.50;;;12.88;62.36
35892;BME280;21993;42.672;23.296;2023-05-11T12:31:58;94929.97;;;12.59;62.06
35892;BME280;21993;42.672;23.296;2023-05-11T12:34:23;94921.06;;;12.60;62.71
35892;BME280;21993;42.672;23.296;2023-05-11T12:36:51;94922.75;;;12.71;63.19
35892;BME280;21993;42.672;23.296;2023-05-11T12:39:22;94923.53;;;12.81;62.30
35892;BME280;21993;42.672;23.296;2023-05-11T12:41:49;94923.25;;;12.75;62.27
35892;BME280;21993;42.672;23.296;2023-05-11T12:44:15;94920.09;;;12.71;62.51
35892;BME280;21993;42.672;23.296;2023-05-11T12:46:42;94905.53;;;12.67;62.57
35892;BME280;21993;42.672;23.296;2023-05-11T12:49:08;94907.19;;;12.68;62.54
35892;BME280;21993;42.672;23.296;2023-05-11T12:51:46;94907.16;;;12.78;62.58
35892;BME280;21993;42.672;23.296;2023-05-11T12:54:31;94912.34;;;12.70;62.62
35892;BME280;21993;42.672;23.296;2023-05-11T12:56:59;94896.00;;;12.66;62.86
35892;BME280;21993;42.672;23.296;2023-05-11T12:59:33;94895.63;;;12.42;63.23
35892;BME280;21993;42.672;23.296;2023-05-11T13:04:34;94900.06;;;12.41;63.03
35892;BME280;21993;42.672;23.296;2023-05-11T13:06:59;94903.38;;;12.43;63.78
35892;BME280;21993;42.672;23.296;2023-05-11T13:09:26;94887.59;;;12.43;63.26
35892;BME280;21993;42.672;23.296;2023-05-11T13:12:14;94881.47;;;12.52;62.95
35892;BME280;21993;42.672;23.296;2023-05-11T13:14:44;94889.66;;;12.49;63.63
35892;BME280;21993;42.672;23.296;2023-05-11T13:17:10;94887.44;;;12.54;63.21
35892;BME280;21993;42.672;23.296;2023-05-11T13:19:36;94873.78;;;12.68;63.31
35892;BME280;21993;42.672;23.296;2023-05-11T13:22:03;94890.31;;;12.71;62.74
35892;BME280;21993;42.672;23.296;2023-05-11T13:24:29;94883.19;;;12.81;62.90
35892;BME280;21993;42.672;23.296;2023-05-11T13:26:56;94889.09;;;12.92;62.50
35892;BME280;21993;42.672;23.296;2023-05-11T13:29:22;94881.13;;;12.75;62.34
35892;BME280;21993;42.672;23.296;2023-05-11T13:31:49;94876.53;;;12.77;62.44
35892;BME280;21993;42.672;23.296;2023-05-11T13:34:15;94875.56;;;12.78;62.54